createdAt,value
2022-10-18T00:02:16.189Z,15.55
2022-10-18T00:04:42.480Z,15.49
2022-10-18T00:07:08.726Z,15.54
2022-10-18T00:09:34.996Z,15.51
2022-10-18T00:12:01.260Z,15.54
2022-10-18T00:14:27.517Z,15.57
2022-10-18T00:16:53.771Z,15.56
2022-10-18T00:19:20.019Z,15.25
2022-10-18T00:21:46.278Z,15.44
2022-10-18T00:24:12.537Z,15.46
2022-10-18T00:26:38.818Z,15.47
2022-10-18T00:29:05.072Z,15.46
2022-10-18T00:31:31.338Z,15.47
2022-10-18T00:33:57.605Z,15.45
2022-10-18T00:36:23.872Z,15.47
2022-10-18T00:38:50.167Z,15.43
2022-10-18T00:41:16.583Z,15.39
2022-10-18T00:43:42.843Z,15.38
2022-10-18T00:46:09.099Z,15.42
2022-10-18T00:48:35.464Z,15.41
2022-10-18T00:51:01.727Z,15.35
2022-10-18T00:53:27.985Z,15.31
2022-10-18T00:55:54.230Z,15.18
2022-10-18T00:58:20.500Z,15.22
2022-10-18T01:00:46.764Z,15.25
2022-10-18T01:03:13.015Z,15.07
2022-10-18T01:05:39.302Z,14.98
2022-10-18T01:08:05.581Z,15.05
2022-10-18T01:10:31.887Z,15.13
2022-10-18T01:12:58.146Z,15.07
2022-10-18T01:15:24.407Z,14.95
2022-10-18T01:17:50.840Z,14.96
2022-10-18T01:20:17.103Z,14.98
2022-10-18T01:22:43.363Z,14.82
2022-10-18T01:25:09.622Z,14.87
2022-10-18T01:27:36.166Z,14.86
2022-10-18T01:30:02.472Z,14.81
2022-10-18T01:32:28.743Z,14.71
2022-10-18T01:34:55.006Z,14.83
2022-10-18T01:37:21.340Z,14.87
2022-10-18T01:39:47.914Z,14.94
2022-10-18T01:42:14.187Z,14.94
2022-10-18T01:44:40.446Z,14.96
2022-10-18T01:47:06.699Z,14.89
2022-10-18T01:49:33.376Z,14.88
2022-10-18T01:51:59.704Z,14.83
2022-10-18T01:54:25.986Z,14.72
2022-10-18T01:56:52.234Z,14.82
2022-10-18T01:59:18.516Z,14.81
2022-10-18T02:01:44.789Z,14.83
2022-10-18T02:04:11.035Z,14.82
2022-10-18T02:06:37.299Z,14.72
2022-10-18T02:09:03.572Z,14.61
2022-10-18T02:11:29.821Z,14.60
2022-10-18T02:13:56.098Z,14.66
2022-10-18T02:16:22.357Z,14.69
2022-10-18T02:18:48.635Z,14.70
2022-10-18T02:21:14.891Z,14.59
2022-10-18T02:23:41.147Z,14.61
2022-10-18T02:26:07.405Z,14.46
2022-10-18T02:28:33.677Z,14.56
2022-10-18T02:30:59.959Z,14.52
2022-10-18T02:33:26.219Z,14.52
2022-10-18T02:35:52.503Z,14.40
2022-10-18T02:38:18.737Z,14.42
2022-10-18T02:40:45.022Z,14.50
2022-10-18T02:43:11.303Z,14.50
2022-10-18T02:45:37.565Z,14.45
2022-10-18T02:48:03.826Z,14.34
2022-10-18T02:50:30.066Z,14.31
2022-10-18T02:52:56.312Z,14.26
2022-10-18T02:55:22.597Z,14.34
2022-10-18T02:57:48.884Z,14.36
2022-10-18T03:00:15.153Z,14.42
2022-10-18T03:02:41.401Z,14.37
2022-10-18T03:05:07.672Z,14.28
2022-10-18T03:07:34.195Z,14.30
2022-10-18T03:10:00.598Z,14.31
2022-10-18T03:12:26.847Z,14.33
2022-10-18T03:14:53.129Z,14.37
2022-10-18T03:17:19.393Z,14.40
2022-10-18T03:19:45.685Z,14.38
2022-10-18T03:22:11.950Z,14.34
2022-10-18T03:24:38.216Z,14.37
2022-10-18T03:27:04.478Z,14.30
2022-10-18T03:29:30.778Z,14.29
2022-10-18T03:31:57.030Z,14.26
2022-10-18T03:34:23.309Z,14.28
2022-10-18T03:36:49.643Z,14.31
2022-10-18T03:39:16.033Z,14.23
2022-10-18T03:41:42.314Z,13.99
2022-10-18T03:44:08.568Z,13.94
2022-10-18T03:46:34.841Z,14.10
2022-10-18T03:49:01.130Z,14.13
2022-10-18T03:51:27.432Z,14.23
2022-10-18T03:53:53.688Z,14.26
2022-10-18T03:56:19.968Z,14.31
2022-10-18T03:58:46.235Z,14.29
2022-10-18T04:01:12.597Z,14.38
2022-10-18T04:03:38.898Z,14.39
2022-10-18T04:06:05.220Z,14.44
2022-10-18T04:08:31.474Z,14.41
2022-10-18T04:10:57.774Z,14.41
2022-10-18T04:13:24.030Z,14.49
2022-10-18T04:15:50.311Z,14.53
2022-10-18T04:18:16.570Z,14.48
2022-10-18T04:20:42.825Z,14.50
2022-10-18T04:23:09.089Z,14.45
2022-10-18T04:25:35.371Z,14.55
2022-10-18T04:28:01.683Z,14.58
2022-10-18T04:30:27.936Z,14.59
2022-10-18T04:32:54.190Z,14.61
2022-10-18T04:35:24.323Z,14.65
2022-10-18T04:37:50.858Z,14.64
2022-10-18T04:40:17.125Z,14.66
2022-10-18T04:42:43.376Z,14.69
2022-10-18T04:45:09.631Z,14.75
2022-10-18T04:47:35.891Z,14.76
2022-10-18T04:50:02.148Z,14.77
2022-10-18T04:52:28.410Z,14.80
2022-10-18T04:54:54.667Z,14.79
2022-10-18T04:57:20.937Z,14.75
2022-10-18T04:59:47.212Z,14.75
2022-10-18T05:02:13.480Z,14.77
2022-10-18T05:04:39.739Z,14.76
2022-10-18T05:07:06.585Z,14.78
2022-10-18T05:09:32.858Z,14.76
2022-10-18T05:11:59.156Z,14.76
2022-10-18T05:14:25.410Z,14.73
2022-10-18T05:16:51.669Z,14.74
2022-10-18T05:19:17.986Z,14.79
2022-10-18T05:21:44.249Z,14.75
2022-10-18T05:24:10.498Z,14.79
2022-10-18T05:26:36.804Z,14.82
2022-10-18T05:29:03.115Z,14.81
2022-10-18T05:31:29.459Z,14.81
2022-10-18T05:33:55.744Z,14.83
2022-10-18T05:36:22.032Z,14.83
2022-10-18T05:38:48.360Z,14.88
2022-10-18T05:41:14.646Z,14.90
2022-10-18T05:43:40.955Z,14.92
2022-10-18T05:46:13.493Z,14.90
2022-10-18T05:48:41.333Z,14.92
2022-10-18T05:51:07.616Z,14.96
2022-10-18T05:53:37.999Z,14.99
2022-10-18T05:56:04.664Z,15.00
2022-10-18T05:58:30.927Z,14.97
2022-10-18T06:00:57.197Z,15.01
2022-10-18T06:03:23.443Z,15.03
2022-10-18T06:05:49.856Z,15.01
2022-10-18T06:08:16.122Z,14.99
2022-10-18T06:10:42.399Z,14.94
2022-10-18T06:13:08.654Z,14.90
2022-10-18T06:15:34.963Z,14.92
2022-10-18T06:18:01.206Z,14.95
2022-10-18T06:20:27.496Z,15.07
2022-10-18T06:22:53.781Z,15.09
2022-10-18T06:25:20.030Z,15.12
2022-10-18T06:27:46.335Z,15.09
2022-10-18T06:30:12.672Z,15.13
2022-10-18T06:32:38.914Z,15.08
2022-10-18T06:35:05.163Z,15.06
2022-10-18T06:37:31.704Z,15.07
2022-10-18T06:39:58.231Z,14.95
2022-10-18T06:42:24.491Z,15.03
2022-10-18T06:44:50.759Z,15.11
2022-10-18T06:47:17.047Z,15.12
2022-10-18T06:49:43.319Z,15.12
2022-10-18T06:52:09.581Z,15.10
2022-10-18T06:54:35.955Z,15.09
2022-10-18T06:57:02.671Z,15.14
2022-10-18T06:59:31.190Z,15.20
2022-10-18T07:01:57.928Z,15.22
2022-10-18T07:04:24.237Z,15.24
2022-10-18T07:06:50.486Z,15.38
2022-10-18T07:09:16.765Z,15.44
2022-10-18T07:11:43.013Z,15.47
2022-10-18T07:14:12.537Z,15.47
2022-10-18T07:16:41.863Z,15.43
2022-10-18T07:19:08.225Z,15.44
2022-10-18T07:21:34.467Z,15.53
2022-10-18T07:24:00.741Z,15.48
2022-10-18T07:26:27.273Z,15.54
2022-10-18T07:28:55.081Z,15.61
2022-10-18T07:31:21.416Z,15.70
2022-10-18T07:33:47.691Z,15.70
2022-10-18T07:36:13.971Z,15.81
2022-10-18T07:38:40.237Z,15.75
2022-10-18T07:41:06.866Z,15.88
2022-10-18T07:43:33.119Z,15.93
2022-10-18T07:45:59.401Z,15.91
2022-10-18T07:48:25.653Z,15.85
2022-10-18T07:50:51.911Z,15.85
2022-10-18T07:53:18.163Z,15.93
2022-10-18T07:55:44.720Z,15.92
2022-10-18T07:58:10.981Z,15.82
2022-10-18T08:00:37.231Z,15.86
2022-10-18T08:03:03.496Z,15.98
2022-10-18T08:05:29.905Z,15.96
2022-10-18T08:07:56.262Z,16.08
2022-10-18T08:10:22.518Z,15.98
2022-10-18T08:12:48.818Z,15.98
2022-10-18T08:15:15.077Z,16.05
2022-10-18T08:17:43.441Z,16.08
2022-10-18T08:20:12.255Z,16.05
2022-10-18T08:22:45.375Z,16.12
2022-10-18T08:25:11.636Z,16.12
2022-10-18T08:27:37.892Z,16.21
2022-10-18T08:30:04.147Z,16.28
2022-10-18T08:32:30.773Z,16.43
2022-10-18T08:34:57.202Z,16.49
2022-10-18T08:37:23.463Z,16.42
2022-10-18T08:39:49.710Z,16.48
2022-10-18T08:42:15.980Z,16.53
2022-10-18T08:44:42.224Z,16.53
2022-10-18T08:47:08.506Z,16.60
2022-10-18T08:49:34.850Z,16.49
2022-10-18T08:52:01.108Z,16.59
2022-10-18T08:54:27.398Z,16.47
2022-10-18T08:56:53.651Z,16.46
2022-10-18T08:59:23.286Z,16.44
2022-10-18T09:01:51.722Z,16.48
2022-10-18T09:04:17.975Z,16.52
2022-10-18T09:06:44.549Z,16.49
2022-10-18T09:09:10.809Z,16.53
2022-10-18T09:11:37.060Z,16.45
2022-10-18T09:14:03.371Z,16.47
2022-10-18T09:16:29.627Z,16.67
2022-10-18T09:18:57.259Z,16.44
2022-10-18T09:21:23.519Z,16.57
2022-10-18T09:23:49.820Z,16.69
2022-10-18T09:26:16.147Z,16.76
2022-10-18T09:28:42.469Z,16.73
2022-10-18T09:31:08.783Z,16.74
2022-10-18T09:33:35.069Z,16.87
2022-10-18T09:36:01.349Z,16.77
2022-10-18T09:38:27.666Z,16.83
2022-10-18T09:40:53.920Z,16.87
2022-10-18T09:43:20.199Z,16.91
2022-10-18T09:45:46.467Z,16.93
2022-10-18T09:48:12.756Z,16.99
2022-10-18T09:50:39.060Z,17.06
2022-10-18T09:53:06.393Z,17.08
2022-10-18T09:55:32.660Z,17.13
2022-10-18T09:57:58.940Z,17.13
2022-10-18T10:00:25.200Z,17.27
2022-10-18T10:02:51.494Z,17.40
2022-10-18T10:05:17.798Z,17.35
2022-10-18T10:07:44.070Z,17.57
2022-10-18T10:10:10.341Z,17.64
2022-10-18T10:12:36.630Z,17.57
2022-10-18T10:15:02.892Z,17.65
2022-10-18T10:17:29.712Z,17.72
2022-10-18T10:19:56.723Z,17.69
2022-10-18T10:22:22.986Z,17.89
2022-10-18T10:24:49.242Z,18.02
2022-10-18T10:27:15.611Z,18.14
2022-10-18T10:29:44.813Z,18.06
2022-10-18T10:32:11.347Z,17.87
2022-10-18T10:34:39.833Z,17.89
2022-10-18T10:37:08.652Z,17.82
2022-10-18T10:39:34.901Z,17.88
2022-10-18T10:42:01.233Z,17.94
2022-10-18T10:44:27.487Z,17.66
2022-10-18T10:46:54.723Z,17.70
2022-10-18T10:49:39.664Z,17.45
2022-10-18T10:52:08.876Z,17.45
2022-10-18T10:54:41.812Z,17.28
2022-10-18T10:57:12.416Z,17.18
2022-10-18T10:59:38.748Z,17.15
2022-10-18T11:02:05.025Z,16.95
2022-10-18T11:04:31.312Z,16.91
2022-10-18T11:06:57.931Z,17.03
2022-10-18T11:09:24.192Z,17.05
2022-10-18T11:11:50.525Z,17.10
2022-10-18T11:14:32.084Z,16.58
2022-10-18T11:16:58.362Z,16.74
2022-10-18T11:19:26.406Z,16.83
2022-10-18T11:21:54.659Z,16.84
2022-10-18T11:24:20.917Z,16.87
2022-10-18T11:26:50.019Z,16.86
2022-10-18T11:29:19.826Z,16.91
2022-10-18T11:31:46.098Z,17.09
2022-10-18T11:34:12.348Z,17.07
2022-10-18T11:36:45.375Z,17.13
2022-10-18T11:39:22.778Z,17.10
2022-10-18T11:41:49.193Z,17.18
2022-10-18T11:44:15.464Z,17.36
2022-10-18T11:46:41.739Z,17.40
2022-10-18T11:49:08.008Z,17.21
2022-10-18T11:51:50.289Z,17.23
2022-10-18T11:54:20.756Z,17.19
2022-10-18T11:56:47.007Z,17.26
2022-10-18T11:59:13.305Z,17.28
2022-10-18T12:01:39.571Z,17.26
2022-10-18T12:04:05.879Z,17.27
2022-10-18T12:06:32.126Z,17.21
2022-10-18T12:08:59.490Z,17.13
2022-10-18T12:11:25.770Z,17.13
2022-10-18T12:13:52.070Z,17.09
2022-10-18T12:16:18.331Z,17.00
2022-10-18T12:18:44.616Z,17.07
2022-10-18T12:21:10.932Z,17.00
2022-10-18T12:23:37.272Z,17.07
2022-10-18T12:26:03.550Z,17.19
2022-10-18T12:28:29.892Z,17.09
2022-10-18T12:30:56.206Z,17.10
2022-10-18T12:33:28.385Z,16.95
2022-10-18T12:35:55.181Z,17.08
2022-10-18T12:38:21.472Z,17.04
2022-10-18T12:40:48.063Z,17.04
2022-10-18T12:43:14.371Z,17.11
2022-10-18T12:45:40.620Z,17.14
2022-10-18T12:48:06.899Z,16.77
2022-10-18T12:50:34.673Z,16.93
2022-10-18T12:53:00.921Z,17.10
2022-10-18T12:55:27.274Z,16.99
2022-10-18T12:57:53.565Z,16.94
2022-10-18T13:00:19.833Z,17.05
2022-10-18T13:02:46.082Z,17.08
2022-10-18T13:05:21.290Z,17.16
2022-10-18T13:07:58.599Z,17.26
2022-10-18T13:10:24.903Z,17.18
2022-10-18T13:12:51.186Z,16.99
2022-10-18T13:15:26.993Z,17.15
2022-10-18T13:17:54.023Z,17.12
2022-10-18T13:20:25.993Z,17.16
2022-10-18T13:22:52.947Z,17.03
2022-10-18T13:25:19.211Z,17.11
2022-10-18T13:27:45.862Z,17.13
2022-10-18T13:30:12.330Z,17.18
2022-10-18T13:32:38.575Z,17.27
2022-10-18T13:35:04.847Z,17.30
2022-10-18T13:37:31.145Z,17.32
2022-10-18T13:39:57.426Z,17.33
2022-10-18T13:42:23.684Z,17.34
2022-10-18T13:44:49.997Z,17.35
2022-10-18T13:47:16.295Z,17.36
2022-10-18T13:49:42.542Z,17.27
2022-10-18T13:52:08.822Z,17.33
2022-10-18T13:54:35.084Z,17.26
2022-10-18T13:57:01.414Z,17.37
2022-10-18T13:59:27.705Z,17.42
2022-10-18T14:01:54.058Z,17.43
2022-10-18T14:04:20.369Z,17.48
2022-10-18T14:06:46.637Z,17.29
2022-10-18T14:09:25.750Z,17.20
2022-10-18T14:11:59.716Z,17.36
2022-10-18T14:14:26.594Z,17.43
2022-10-18T14:16:52.866Z,17.51
2022-10-18T14:19:19.127Z,17.58
2022-10-18T14:21:45.392Z,17.64
2022-10-18T14:24:11.666Z,17.67
2022-10-18T14:29:09.158Z,17.53
2022-10-18T14:31:35.529Z,17.48
2022-10-18T14:34:01.863Z,17.54
2022-10-18T14:36:28.193Z,17.54
2022-10-18T14:38:54.460Z,17.39
2022-10-18T14:41:20.723Z,17.57
2022-10-18T14:43:48.228Z,17.45
2022-10-18T14:46:14.503Z,17.13
2022-10-18T14:48:40.958Z,17.19
2022-10-18T14:51:07.219Z,17.17
2022-10-18T14:53:35.828Z,17.16
2022-10-18T14:56:04.022Z,17.29
2022-10-18T14:58:30.300Z,17.05
2022-10-18T15:00:56.660Z,17.08
2022-10-18T15:03:23.024Z,17.06
2022-10-18T15:05:49.283Z,17.03
2022-10-18T15:08:15.546Z,17.05
2022-10-18T15:10:41.798Z,16.81
2022-10-18T15:13:10.481Z,16.88
2022-10-18T15:15:37.300Z,16.93
2022-10-18T15:18:05.165Z,17.01
2022-10-18T15:20:31.860Z,16.93
2022-10-18T15:22:58.119Z,17.01
2022-10-18T15:25:27.938Z,17.01
2022-10-18T15:27:57.710Z,17.02
2022-10-18T15:30:24.497Z,17.08
2022-10-18T15:32:50.764Z,17.04
2022-10-18T15:35:18.503Z,17.02
2022-10-18T15:37:47.305Z,16.96
2022-10-18T15:40:13.778Z,16.99
2022-10-18T15:42:40.075Z,16.98
2022-10-18T15:45:06.344Z,16.75
2022-10-18T15:47:32.897Z,16.74
2022-10-18T15:49:59.365Z,16.54
2022-10-18T15:52:25.632Z,16.57
2022-10-18T15:54:51.903Z,16.37
2022-10-18T15:57:18.183Z,16.45
2022-10-18T15:59:44.448Z,16.42
2022-10-18T16:02:10.712Z,16.41
2022-10-18T16:04:36.972Z,16.37
2022-10-18T16:07:03.347Z,16.47
2022-10-18T16:09:29.597Z,16.47
2022-10-18T16:11:57.408Z,16.40
2022-10-18T16:14:23.763Z,16.35
2022-10-18T16:16:50.016Z,16.40
2022-10-18T16:19:18.559Z,16.43
2022-10-18T16:21:44.813Z,16.45
2022-10-18T16:24:11.064Z,16.46
2022-10-18T16:26:37.340Z,16.39
2022-10-18T16:29:03.657Z,16.36
2022-10-18T16:31:30.041Z,16.42
2022-10-18T16:33:56.321Z,16.37
2022-10-18T16:36:22.616Z,16.44
2022-10-18T16:38:48.904Z,16.45
2022-10-18T16:41:15.811Z,16.49
2022-10-18T16:43:42.131Z,16.51
2022-10-18T16:46:08.444Z,16.48
2022-10-18T16:48:34.789Z,16.47
2022-10-18T16:51:01.052Z,16.47
2022-10-18T16:53:27.894Z,16.46
2022-10-18T16:55:54.456Z,16.47
2022-10-18T16:58:20.853Z,16.46
2022-10-18T17:00:47.192Z,16.48
2022-10-18T17:03:13.447Z,16.47
2022-10-18T17:05:39.728Z,16.48
2022-10-18T17:08:05.971Z,16.48
2022-10-18T17:10:32.254Z,16.47
2022-10-18T17:12:58.572Z,16.48
2022-10-18T17:15:24.831Z,16.47
2022-10-18T17:17:51.127Z,16.43
2022-10-18T17:20:17.454Z,16.41
2022-10-18T17:22:43.715Z,16.42
2022-10-18T17:25:09.975Z,16.36
2022-10-18T17:27:36.256Z,16.34
2022-10-18T17:30:02.498Z,16.29
2022-10-18T17:32:28.796Z,16.07
2022-10-18T17:34:55.043Z,16.10
2022-10-18T17:37:21.295Z,16.01
2022-10-18T17:39:47.591Z,16.05
2022-10-18T17:42:13.854Z,16.10
2022-10-18T17:44:40.116Z,16.08
2022-10-18T17:47:06.405Z,16.09
2022-10-18T17:49:32.686Z,15.99
2022-10-18T17:52:01.158Z,16.00
2022-10-18T17:54:30.732Z,15.96
2022-10-18T17:56:57.003Z,15.88
2022-10-18T17:59:23.289Z,15.78
2022-10-18T18:01:49.559Z,15.80
2022-10-18T18:04:16.976Z,15.82
2022-10-18T18:06:45.267Z,15.83
2022-10-18T18:09:11.510Z,15.59
2022-10-18T18:11:37.974Z,15.75
2022-10-18T18:14:08.813Z,15.81
2022-10-18T18:16:35.356Z,15.84
2022-10-18T18:19:04.022Z,15.84
2022-10-18T18:21:31.368Z,15.88
2022-10-18T18:23:57.615Z,15.87
2022-10-18T18:26:23.915Z,15.88
2022-10-18T18:28:50.328Z,15.83
2022-10-18T18:31:16.687Z,15.78
2022-10-18T18:33:42.951Z,15.80
2022-10-18T18:36:09.265Z,15.85
2022-10-18T18:38:35.511Z,15.86
2022-10-18T18:41:01.768Z,15.80
2022-10-18T18:43:28.074Z,15.85
2022-10-18T18:45:54.402Z,15.88
2022-10-18T18:48:20.816Z,15.90
2022-10-18T18:50:51.750Z,15.80
2022-10-18T18:53:18.003Z,15.84
2022-10-18T18:55:44.303Z,15.77
2022-10-18T18:58:10.575Z,15.79
2022-10-18T19:00:40.393Z,15.52
2022-10-18T19:03:10.112Z,15.68
2022-10-18T19:05:36.507Z,15.59
2022-10-18T19:08:02.750Z,15.68
2022-10-18T19:10:29.007Z,15.69
2022-10-18T19:12:55.258Z,15.73
2022-10-18T19:15:21.507Z,15.76
2022-10-18T19:17:47.792Z,15.68
2022-10-18T19:20:15.184Z,15.65
2022-10-18T19:22:41.473Z,15.66
2022-10-18T19:25:07.898Z,15.70
2022-10-18T19:27:34.409Z,15.67
2022-10-18T19:30:01.014Z,15.61
2022-10-18T19:34:58.458Z,15.60
2022-10-18T19:37:24.716Z,15.62
2022-10-18T19:39:50.995Z,15.62
2022-10-18T19:42:20.513Z,15.56
2022-10-18T19:44:50.492Z,15.58
2022-10-18T19:47:16.747Z,15.52
2022-10-18T19:49:43.125Z,15.47
2022-10-18T19:52:09.378Z,15.28
2022-10-18T19:54:35.702Z,15.29
2022-10-18T19:57:01.947Z,15.27
2022-10-18T19:59:28.239Z,15.22
2022-10-18T20:01:54.571Z,15.16
2022-10-18T20:04:20.828Z,15.14
2022-10-18T20:06:47.712Z,14.97
2022-10-18T20:09:17.676Z,14.92
2022-10-18T20:11:46.765Z,14.76
2022-10-18T20:14:13.030Z,14.57
2022-10-18T20:16:39.351Z,14.60
2022-10-18T20:19:05.708Z,14.59
2022-10-18T20:21:35.399Z,14.65
2022-10-18T20:24:01.656Z,14.35
2022-10-18T20:26:27.918Z,14.47
2022-10-18T20:28:58.060Z,14.38
2022-10-18T20:31:24.567Z,14.30
2022-10-18T20:33:50.817Z,14.40
2022-10-18T20:36:17.072Z,14.31
2022-10-18T20:38:43.332Z,14.23
2022-10-18T20:41:09.575Z,14.22
2022-10-18T20:43:35.846Z,14.19
2022-10-18T20:46:02.101Z,13.99
2022-10-18T20:48:28.351Z,14.12
2022-10-18T20:50:54.600Z,13.99
2022-10-18T20:53:22.204Z,14.09
2022-10-18T20:55:48.496Z,14.14
2022-10-18T20:58:14.743Z,14.02
2022-10-18T21:00:40.996Z,13.79
2022-10-18T21:03:07.406Z,14.08
2022-10-18T21:05:33.720Z,14.21
2022-10-18T21:07:59.990Z,14.22
2022-10-18T21:10:26.242Z,14.23
2022-10-18T21:12:52.499Z,14.26
2022-10-18T21:15:18.750Z,14.29
2022-10-18T21:17:44.998Z,14.26
2022-10-18T21:20:11.264Z,14.21
2022-10-18T21:22:37.525Z,14.13
2022-10-18T21:25:03.771Z,14.22
2022-10-18T21:27:30.058Z,14.27
2022-10-18T21:29:56.302Z,14.27
2022-10-18T21:32:22.546Z,14.32
2022-10-18T21:34:48.791Z,14.37
2022-10-18T21:37:15.068Z,14.41
2022-10-18T21:39:42.230Z,14.48
2022-10-18T21:42:08.733Z,14.51
2022-10-18T21:44:35.001Z,14.55
2022-10-18T21:47:01.266Z,14.55
2022-10-18T21:49:29.040Z,14.47
2022-10-18T21:51:55.293Z,14.50
2022-10-18T21:54:21.542Z,14.08
2022-10-18T21:56:47.812Z,14.20
2022-10-18T21:59:14.084Z,14.34
2022-10-18T22:01:40.339Z,14.33
2022-10-18T22:04:06.632Z,14.44
2022-10-18T22:09:04.829Z,14.49
2022-10-18T22:11:31.070Z,14.52
2022-10-18T22:13:57.388Z,14.54
2022-10-18T22:16:23.659Z,14.54
2022-10-18T22:18:49.924Z,14.52
2022-10-18T22:21:16.263Z,14.41
2022-10-18T22:23:42.532Z,14.40
2022-10-18T22:26:08.865Z,14.30
2022-10-18T22:28:35.153Z,14.32
2022-10-18T22:31:01.451Z,14.28
2022-10-18T22:33:27.748Z,14.31
2022-10-18T22:35:54.049Z,14.35
2022-10-18T22:38:20.297Z,14.46
2022-10-18T22:40:46.647Z,14.40
2022-10-18T22:43:12.907Z,14.40
2022-10-18T22:45:39.187Z,14.45
2022-10-18T22:48:05.442Z,14.47
2022-10-18T22:50:31.719Z,14.50
2022-10-18T22:52:57.980Z,14.44
2022-10-18T22:55:24.245Z,14.41
2022-10-18T22:57:50.496Z,14.25
2022-10-18T23:00:16.749Z,14.23
2022-10-18T23:02:43.040Z,14.17
2022-10-18T23:05:09.299Z,14.18
2022-10-18T23:07:35.622Z,14.17
2022-10-18T23:10:01.884Z,13.95
2022-10-18T23:12:28.156Z,14.06
2022-10-18T23:14:54.418Z,14.00
2022-10-18T23:17:20.680Z,14.03
2022-10-18T23:19:46.921Z,13.86
2022-10-18T23:22:14.883Z,13.91
2022-10-18T23:24:41.062Z,13.88
2022-10-18T23:27:07.321Z,13.92
2022-10-18T23:29:33.576Z,13.74
2022-10-18T23:31:59.878Z,13.72
2022-10-18T23:34:26.129Z,13.71
2022-10-18T23:36:52.416Z,13.75
2022-10-18T23:39:18.673Z,13.69
2022-10-18T23:41:44.928Z,13.77
2022-10-18T23:44:11.433Z,13.79
2022-10-18T23:46:37.683Z,13.65
2022-10-18T23:49:03.981Z,13.70
2022-10-18T23:51:30.387Z,13.69
2022-10-18T23:53:56.655Z,13.74
2022-10-18T23:56:22.906Z,13.70
2022-10-18T23:58:49.349Z,13.74
